Time;durP1;ratioP1;P1;durP2;ratioP2;P2;SDS_P1;SDS_P2;PMS_P1;PMS_P2;Temp;Humidity;BMP_temperature;BMP_pressure;BME280_temperature;BME280_humidity;BME280_pressure;Samples;Min_cycle;Max_cycle;Signal;HPM_P1;HPM_P2
2021/11/04 00:02:08;;;;;;;18.52;16.40;;;7.60;87.90;;;;;;5101105;27;20024;-67
2021/11/04 00:04:33;;;;;;;23.55;17.83;;;7.60;88.10;;;;;;5109998;28;20107;-68
2021/11/04 00:06:59;;;;;;;26.05;19.77;;;7.50;88.30;;;;;;5098075;28;20619;-68
2021/11/04 00:09:25;;;;;;;25.73;19.63;;;7.50;88.70;;;;;;5106261;28;20023;-67
2021/11/04 00:11:50;;;;;;;20.27;16.92;;;7.60;88.70;;;;;;5105551;28;20028;-68
2021/11/04 00:14:16;;;;;;;26.40;18.10;;;7.70;88.50;;;;;;5099527;28;20157;-67
2021/11/04 00:16:42;;;;;;;22.17;16.77;;;7.90;88.20;;;;;;5111372;28;20027;-67
2021/11/04 00:19:07;;;;;;;20.88;17.17;;;7.90;87.80;;;;;;5098701;28;20480;-68
2021/11/04 00:21:33;;;;;;;19.40;16.77;;;8.00;87.60;;;;;;5102932;28;20505;-68
2021/11/04 00:23:59;;;;;;;24.02;18.10;;;8.00;87.40;;;;;;5085511;28;20028;-68
2021/11/04 00:26:24;;;;;;;23.00;19.05;;;8.10;87.30;;;;;;5110157;28;20031;-68
2021/11/04 00:28:52;;;;;;;22.98;18.85;;;8.20;87.10;;;;;;5097662;28;20028;-68
2021/11/04 00:31:18;;;;;;;20.48;17.45;;;8.20;86.40;;;;;;5106650;28;20132;-67
2021/11/04 00:33:44;;;;;;;21.27;18.38;;;8.30;86.20;;;;;;5101939;28;20102;-68
2021/11/04 00:36:10;;;;;;;22.08;19.02;;;8.30;86.40;;;;;;5100446;28;20035;-68
2021/11/04 00:38:35;;;;;;;21.83;18.33;;;8.30;85.90;;;;;;5110776;28;20032;-68
2021/11/04 00:41:01;;;;;;;23.05;18.05;;;8.30;86.00;;;;;;5097851;28;20147;-68
2021/11/04 00:43:27;;;;;;;20.73;16.50;;;8.30;86.10;;;;;;5105813;28;20048;-68
2021/11/04 00:45:52;;;;;;;18.55;16.55;;;8.40;86.10;;;;;;5104883;28;20576;-68
2021/11/04 00:48:18;;;;;;;22.27;18.38;;;8.30;85.90;;;;;;5097982;28;20085;-68
2021/11/04 00:50:43;;;;;;;19.83;17.40;;;8.30;86.00;;;;;;5109223;28;20054;-68
2021/11/04 00:53:09;;;;;;;21.58;18.80;;;8.30;86.00;;;;;;5098034;28;20084;-68
2021/11/04 00:55:34;;;;;;;23.00;18.42;;;8.20;86.10;;;;;;5104898;28;20473;-68
2021/11/04 00:58:00;;;;;;;25.90;21.40;;;8.20;86.20;;;;;;5105115;28;20111;-68
2021/11/04 01:00:25;;;;;;;25.60;20.77;;;8.10;86.20;;;;;;5098191;28;20024;-68
2021/11/04 01:02:51;;;;;;;26.15;21.48;;;8.10;86.50;;;;;;5109667;28;20024;-68
2021/11/04 01:05:17;;;;;;;28.42;20.80;;;8.00;86.90;;;;;;5099545;28;20030;-68
2021/11/04 01:07:44;;;;;;;24.02;20.15;;;8.00;87.00;;;;;;5103859;28;20028;-68
2021/11/04 01:10:10;;;;;;;26.92;21.80;;;7.90;87.20;;;;;;5106993;28;20032;-68
2021/11/04 01:12:36;;;;;;;25.50;21.50;;;7.90;87.20;;;;;;5095949;28;20030;-68
2021/11/04 01:15:04;;;;;;;24.00;21.40;;;7.90;87.30;;;;;;5109060;27;20028;-68
2021/11/04 01:17:30;;;;;;;24.15;20.00;;;7.90;87.30;;;;;;5101218;28;20020;-68
2021/11/04 01:19:56;;;;;;;21.92;19.48;;;7.90;87.30;;;;;;5101614;28;20104;-68
2021/11/04 01:22:21;;;;;;;26.85;21.85;;;7.90;87.00;;;;;;5097235;28;20103;-68
2021/11/04 01:24:47;;;;;;;26.70;21.65;;;7.90;86.90;;;;;;5109708;28;20028;-68
2021/11/04 01:27:12;;;;;;;24.83;20.75;;;7.80;87.00;;;;;;5098436;28;20026;-68
2021/11/04 01:29:38;;;;;;;26.98;21.70;;;7.70;87.20;;;;;;5101728;28;20398;-68
2021/11/04 01:32:04;;;;;;;23.42;20.92;;;7.70;87.40;;;;;;5104986;28;20028;-68
2021/11/04 01:34:29;;;;;;;27.27;22.90;;;7.60;87.50;;;;;;5096352;28;20051;-68
2021/11/04 01:36:55;;;;;;;26.00;21.38;;;7.60;87.60;;;;;;5109497;28;20048;-68
2021/11/04 01:39:21;;;;;;;23.98;20.65;;;7.60;87.60;;;;;;5099608;28;20042;-68
2021/11/04 01:41:47;;;;;;;26.05;22.17;;;7.70;87.60;;;;;;5102733;28;20020;-68
2021/11/04 01:44:12;;;;;;;25.17;21.48;;;7.70;87.40;;;;;;5105747;28;20096;-68
2021/11/04 01:46:38;;;;;;;23.48;20.15;;;7.70;87.40;;;;;;5096164;28;20495;-68
2021/11/04 01:49:04;;;;;;;22.70;19.30;;;7.80;87.50;;;;;;5108202;28;20726;-68
2021/11/04 01:51:30;;;;;;;21.13;18.42;;;8.00;87.20;;;;;;5100537;28;20063;-68
2021/11/04 01:53:56;;;;;;;25.05;19.05;;;8.00;87.10;;;;;;5100225;28;20028;-69
2021/11/04 01:56:24;;;;;;;22.75;19.40;;;8.00;86.80;;;;;;5107812;28;20384;-68
2021/11/04 01:58:50;;;;;;;21.50;18.90;;;8.10;86.60;;;;;;5095863;28;20023;-68
2021/11/04 02:01:16;;;;;;;30.98;21.33;;;8.10;86.30;;;;;;5106290;28;20020;-68
2021/11/04 02:03:51;;;;;;;27.15;21.58;;;8.20;86.20;;;;;;5099835;28;20020;-68
2021/11/04 02:06:28;;;;;;;24.38;20.20;;;8.20;86.00;;;;;;5096659;28;20028;-68
2021/11/04 02:09:15;;;;;;;26.20;20.25;;;8.20;86.10;;;;;;5107783;28;20473;-68
2021/11/04 02:11:48;;;;;;;22.42;19.60;;;8.20;85.90;;;;;;5101813;28;20080;-68
2021/11/04 02:14:18;;;;;;;22.52;19.30;;;8.20;86.00;;;;;;5097234;28;20028;-68
2021/11/04 02:16:45;;;;;;;23.65;19.05;;;8.20;85.90;;;;;;5108888;28;20024;-68
2021/11/04 02:19:24;;;;;;;21.42;18.20;;;8.30;85.90;;;;;;5096063;28;20012;-68
2021/11/04 02:21:58;;;;;;;23.35;19.00;;;8.30;85.70;;;;;;5094434;28;20394;-68
2021/11/04 02:24:49;;;;;;;23.75;19.92;;;8.30;85.70;;;;;;5086609;28;20043;-68
2021/11/04 02:27:17;;;;;;;33.63;20.98;;;8.30;85.50;;;;;;5088409;28;20115;-68
2021/11/04 02:29:44;;;;;;;21.40;18.77;;;8.30;85.50;;;;;;5102266;28;20032;-68
2021/11/04 02:32:11;;;;;;;21.90;19.40;;;8.30;85.60;;;;;;5104710;28;20083;-68
2021/11/04 02:34:39;;;;;;;26.02;19.88;;;8.20;85.50;;;;;;5095311;28;20081;-68
2021/11/04 02:37:06;;;;;;;21.98;18.70;;;8.30;85.60;;;;;;5107173;28;20012;-68
2021/11/04 02:39:33;;;;;;;25.30;20.45;;;8.20;85.30;;;;;;5082049;28;20093;-68
2021/11/04 02:41:59;;;;;;;24.48;19.08;;;8.20;85.40;;;;;;5099271;28;20020;-67
2021/11/04 02:44:26;;;;;;;23.70;20.75;;;8.20;85.60;;;;;;5105475;28;20493;-68
2021/11/04 02:46:55;;;;;;;22.27;18.92;;;8.10;85.80;;;;;;5095110;28;20035;-67
2021/11/04 02:49:22;;;;;;;23.55;19.38;;;8.20;85.90;;;;;;5104902;28;20064;-68
2021/11/04 02:51:48;;;;;;;25.38;20.63;;;8.20;85.90;;;;;;5100880;28;20038;-68
2021/11/04 02:54:14;;;;;;;21.52;18.92;;;8.30;86.00;;;;;;5096668;28;20036;-68
2021/11/04 02:56:48;;;;;;;22.42;19.63;;;8.30;85.60;;;;;;5108434;28;20034;-68
2021/11/04 02:59:15;;;;;;;20.67;18.08;;;8.20;85.50;;;;;;5096266;28;20016;-68
2021/11/04 03:01:43;;;;;;;24.80;19.38;;;8.20;85.70;;;;;;5102627;28;20032;-68
2021/11/04 03:04:09;;;;;;;21.98;18.42;;;8.30;85.50;;;;;;5104993;28;20020;-68
2021/11/04 03:06:34;;;;;;;20.88;17.70;;;8.30;85.60;;;;;;5095894;28;20039;-68
2021/11/04 03:09:00;;;;;;;21.23;17.98;;;8.40;85.80;;;;;;5108448;28;20416;-68
2021/11/04 03:11:26;;;;;;;21.63;17.55;;;8.40;85.30;;;;;;5098855;28;20548;-68
2021/11/04 03:13:51;;;;;;;21.75;18.30;;;8.40;85.40;;;;;;5099678;28;20055;-68
2021/11/04 03:16:19;;;;;;;23.90;18.85;;;8.40;85.40;;;;;;5104643;28;20665;-67
2021/11/04 03:18:44;;;;;;;20.17;16.85;;;8.40;85.40;;;;;;5094582;28;20016;-68
2021/11/04 03:21:12;;;;;;;22.33;19.48;;;8.40;85.60;;;;;;5105812;28;20020;-68
2021/11/04 03:23:38;;;;;;;23.77;19.70;;;8.30;85.70;;;;;;5079485;28;20035;-68
2021/11/04 03:26:05;;;;;;;23.25;19.65;;;8.40;85.80;;;;;;5104084;28;20028;-68
2021/11/04 03:28:32;;;;;;;22.10;18.50;;;8.40;85.50;;;;;;5094976;28;20092;-68
2021/11/04 03:30:58;;;;;;;20.88;17.58;;;8.40;85.40;;;;;;5078074;28;20116;-68
2021/11/04 03:33:27;;;;;;;24.23;18.90;;;8.40;85.40;;;;;;5101979;28;20024;-68
2021/11/04 03:35:55;;;;;;;22.83;18.70;;;8.30;85.60;;;;;;5101030;28;20027;-68
2021/11/04 03:38:21;;;;;;;21.00;17.90;;;8.40;85.80;;;;;;5094929;28;20027;-68
2021/11/04 03:40:47;;;;;;;23.30;19.67;;;8.50;85.50;;;;;;5107839;28;20030;-68
2021/11/04 03:43:14;;;;;;;24.13;19.70;;;8.40;85.40;;;;;;5095910;28;20379;-68
2021/11/04 03:45:41;;;;;;;23.98;19.13;;;8.40;85.60;;;;;;5114284;22;20056;-70
2021/11/04 03:48:07;;;;;;;25.42;19.40;;;8.30;85.80;;;;;;5040343;28;20025;-70
2021/11/04 03:50:34;;;;;;;26.38;20.85;;;8.30;85.90;;;;;;5067944;28;20418;-71
2021/11/04 03:53:00;;;;;;;23.38;19.90;;;8.40;85.80;;;;;;5055989;28;20020;-72
2021/11/04 03:55:28;;;;;;;23.45;18.60;;;8.40;85.20;;;;;;5050285;28;20017;-70
2021/11/04 03:57:54;;;;;;;24.65;19.70;;;8.30;85.50;;;;;;5066095;28;20078;-70
2021/11/04 04:00:21;;;;;;;24.23;20.08;;;8.40;85.90;;;;;;5059823;28;20429;-70
2021/11/04 04:02:48;;;;;;;22.98;18.95;;;8.40;85.90;;;;;;5070035;28;20024;-70
2021/11/04 04:05:14;;;;;;;23.27;18.35;;;8.40;85.90;;;;;;5041951;28;20055;-70
2021/11/04 04:07:40;;;;;;;25.80;19.08;;;8.40;85.60;;;;;;5064755;28;20061;-70
2021/11/04 04:10:06;;;;;;;21.90;17.67;;;8.40;85.70;;;;;;5067193;28;20028;-70
2021/11/04 04:12:32;;;;;;;21.70;18.30;;;8.40;85.70;;;;;;5056856;28;20028;-70
2021/11/04 04:14:57;;;;;;;24.92;18.90;;;8.50;85.70;;;;;;5037458;28;20055;-70
2021/11/04 04:17:23;;;;;;;23.30;20.38;;;8.50;86.40;;;;;;5060913;28;20028;-69
2021/11/04 04:19:50;;;;;;;27.00;21.45;;;8.50;86.80;;;;;;5063467;28;20044;-69
2021/11/04 04:22:16;;;;;;;23.75;19.45;;;8.50;87.30;;;;;;5057945;28;20044;-70
2021/11/04 04:24:41;;;;;;;25.17;21.27;;;8.50;88.00;;;;;;5070390;28;20133;-70
2021/11/04 04:27:07;;;;;;;26.50;22.08;;;8.40;88.60;;;;;;5058470;28;20016;-71
2021/11/04 04:29:33;;;;;;;29.05;23.60;;;8.40;89.20;;;;;;5065514;28;20029;-71
2021/11/04 04:31:59;;;;;;;33.05;26.15;;;8.40;89.70;;;;;;5065058;28;20498;-71
2021/11/04 04:34:25;;;;;;;36.67;28.08;;;8.40;90.20;;;;;;5067553;28;20111;-71
2021/11/04 04:36:51;;;;;;;33.45;26.10;;;8.30;90.60;;;;;;5056956;28;20517;-71
2021/11/04 04:39:16;;;;;;;36.42;26.50;;;8.20;90.90;;;;;;5067289;28;20025;-70
2021/11/04 04:41:42;;;;;;;34.58;27.48;;;8.20;91.40;;;;;;5063440;28;20020;-70
2021/11/04 04:44:07;;;;;;;36.38;28.17;;;8.20;91.70;;;;;;5059703;28;20029;-71
2021/11/04 04:46:33;;;;;;;37.80;29.38;;;8.10;92.00;;;;;;5069723;28;20559;-70
2021/11/04 04:48:58;;;;;;;39.33;29.02;;;8.20;92.30;;;;;;5038953;28;20051;-70
2021/11/04 04:51:24;;;;;;;38.20;28.52;;;8.20;92.50;;;;;;5066221;28;20021;-70
2021/11/04 04:53:49;;;;;;;38.22;28.83;;;8.20;92.50;;;;;;5045454;28;20029;-69
2021/11/04 04:56:15;;;;;;;44.13;30.75;;;8.10;92.70;;;;;;5041107;28;20108;-70
2021/11/04 04:58:41;;;;;;;44.92;31.60;;;8.20;92.90;;;;;;5069769;28;20104;-68
2021/11/04 05:01:07;;;;;;;43.13;30.75;;;8.20;93.00;;;;;;5057803;28;20021;-70
2021/11/04 05:03:32;;;;;;;38.55;29.90;;;8.20;93.10;;;;;;5063830;28;20040;-69
2021/11/04 05:05:58;;;;;;;39.13;29.38;;;8.20;93.00;;;;;;5046936;28;20081;-70
2021/11/04 05:08:23;;;;;;;47.00;30.77;;;8.20;93.20;;;;;;5057670;28;20522;-69
2021/11/04 05:10:49;;;;;;;44.33;30.88;;;8.20;93.30;;;;;;5068433;28;20071;-70
2021/11/04 05:13:14;;;;;;;43.75;32.22;;;8.20;93.40;;;;;;5057720;28;20075;-70
2021/11/04 05:15:40;;;;;;;51.20;32.95;;;8.20;93.40;;;;;;5063094;28;20025;-70
2021/11/04 05:18:08;;;;;;;52.95;35.60;;;8.20;93.50;;;;;;5065471;28;20028;-69
2021/11/04 05:20:37;;;;;;;53.25;37.10;;;8.20;93.60;;;;;;5056150;28;20013;-70
2021/11/04 05:23:03;;;;;;;58.47;36.85;;;8.10;93.60;;;;;;5060303;28;20016;-70
2021/11/04 05:25:29;;;;;;;59.35;39.28;;;8.10;93.70;;;;;;5064797;28;20501;-69
2021/11/04 05:27:55;;;;;;;64.80;40.03;;;8.10;93.90;;;;;;5046098;28;20024;-70
2021/11/04 05:30:20;;;;;;;57.28;37.85;;;8.10;93.90;;;;;;5039673;28;20402;-69
2021/11/04 05:32:46;;;;;;;60.72;38.70;;;8.10;94.00;;;;;;5049950;28;20032;-70
2021/11/04 05:35:14;;;;;;;60.13;38.78;;;8.10;94.10;;;;;;5057852;28;20055;-71
2021/11/04 05:37:40;;;;;;;62.35;40.90;;;8.10;94.10;;;;;;5045125;28;20021;-70
2021/11/04 05:40:06;;;;;;;63.95;40.40;;;8.10;94.20;;;;;;5065023;28;20032;-71
2021/11/04 05:42:32;;;;;;;64.75;41.00;;;8.10;94.20;;;;;;5037151;28;20025;-70
2021/11/04 05:44:59;;;;;;;68.38;41.08;;;8.00;94.30;;;;;;5035400;28;20029;-71
2021/11/04 05:47:25;;;;;;;63.05;39.05;;;8.10;94.40;;;;;;5059495;28;20055;-71
2021/11/04 05:49:50;;;;;;;61.88;38.67;;;8.00;94.40;;;;;;5043227;28;20040;-71
2021/11/04 05:52:16;;;;;;;68.32;41.45;;;8.10;94.50;;;;;;5047716;28;20078;-72
2021/11/04 05:54:41;;;;;;;67.47;40.45;;;8.10;94.50;;;;;;5054927;28;20071;-71
2021/11/04 05:57:07;;;;;;;64.60;39.00;;;8.10;94.50;;;;;;5067004;28;20021;-71
2021/11/04 05:59:33;;;;;;;75.70;42.88;;;8.10;94.60;;;;;;5042050;28;20475;-71
2021/11/04 06:01:58;;;;;;;63.83;39.30;;;8.10;94.60;;;;;;5038070;28;20024;-70
2021/11/04 06:04:25;;;;;;;75.80;42.33;;;8.10;94.70;;;;;;5038129;28;20035;-71
2021/11/04 06:06:51;;;;;;;73.07;41.30;;;8.20;94.60;;;;;;5068337;28;20025;-71
2021/11/04 06:09:16;;;;;;;74.40;43.28;;;8.20;94.70;;;;;;5039117;28;20020;-72
2021/11/04 06:11:42;;;;;;;69.75;41.80;;;8.10;94.60;;;;;;5061086;28;20040;-71
2021/11/04 06:14:08;;;;;;;67.90;41.65;;;8.10;94.60;;;;;;5044460;28;20064;-70
2021/11/04 06:16:33;;;;;;;71.70;40.22;;;8.10;94.60;;;;;;5053438;28;20108;-71
2021/11/04 06:18:59;;;;;;;71.88;42.30;;;8.00;94.60;;;;;;5066786;28;20104;-70
2021/11/04 06:21:25;;;;;;;71.47;41.03;;;8.00;94.50;;;;;;5054807;28;20103;-71
2021/11/04 06:23:50;;;;;;;78.07;41.33;;;8.00;94.70;;;;;;5060593;28;20054;-70
2021/11/04 06:26:17;;;;;;;70.68;38.45;;;8.00;94.70;;;;;;5056715;28;20028;-70
2021/11/04 06:28:43;;;;;;;64.20;37.90;;;8.00;94.70;;;;;;5067259;28;20037;-70
2021/11/04 06:31:09;;;;;;;66.88;37.63;;;8.00;94.70;;;;;;5055766;28;20116;-70
2021/11/04 06:33:35;;;;;;;73.22;39.72;;;8.00;94.60;;;;;;5060969;28;20035;-70
2021/11/04 06:36:01;;;;;;;66.57;37.58;;;7.90;94.60;;;;;;5061729;28;20136;-70
2021/11/04 06:38:27;;;;;;;61.15;35.15;;;7.90;94.60;;;;;;5035705;28;20021;-71
2021/11/04 06:40:52;;;;;;;56.30;34.00;;;7.90;94.80;;;;;;5066500;28;20025;-71
2021/11/04 06:43:18;;;;;;;57.38;32.75;;;7.90;94.70;;;;;;5055407;28;20179;-71
2021/11/04 06:45:47;;;;;;;46.72;30.58;;;7.80;94.50;;;;;;5059751;28;20127;-70
2021/11/04 06:48:22;;;;;;;49.03;30.38;;;7.80;94.70;;;;;;5064421;28;20021;-69
2021/11/04 06:50:50;;;;;;;47.78;28.73;;;7.80;94.70;;;;;;5054362;28;20475;-70
2021/11/04 06:53:21;;;;;;;40.10;26.13;;;7.70;94.70;;;;;;5045989;28;20032;-70
2021/11/04 06:55:49;;;;;;;43.63;27.55;;;7.70;94.70;;;;;;5061310;28;20066;-71
2021/11/04 06:58:15;;;;;;;38.60;25.55;;;7.60;94.70;;;;;;5038574;28;20021;-70
2021/11/04 07:00:47;;;;;;;38.85;24.58;;;7.60;94.70;;;;;;5067296;28;20499;-70
2021/11/04 07:03:21;;;;;;;38.05;25.77;;;7.50;94.80;;;;;;5055503;28;20021;-70
2021/11/04 07:05:47;;;;;;;42.22;26.08;;;7.60;94.80;;;;;;5060782;28;20386;-69
2021/11/04 07:08:22;;;;;;;39.63;23.90;;;7.70;94.90;;;;;;5064749;28;20023;-69
2021/11/04 07:10:51;;;;;;;38.35;24.38;;;7.60;94.80;;;;;;5036121;28;20043;-69
2021/11/04 07:13:17;;;;;;;34.70;22.98;;;7.60;94.90;;;;;;5063552;28;20021;-69
2021/11/04 07:15:43;;;;;;;34.58;20.65;;;7.60;94.90;;;;;;5060248;28;20096;-70
2021/11/04 07:18:13;;;;;;;31.25;20.45;;;7.60;94.90;;;;;;5056443;28;20413;-70
2021/11/04 07:20:45;;;;;;;33.17;19.35;;;7.50;94.90;;;;;;5066638;28;20021;-69
2021/11/04 07:23:15;;;;;;;29.67;18.35;;;7.40;94.90;;;;;;5054677;28;20054;-69
2021/11/04 07:25:44;;;;;;;28.40;18.38;;;7.50;95.00;;;;;;5061697;28;20024;-71
2021/11/04 07:28:14;;;;;;;24.27;15.95;;;7.50;94.90;;;;;;5066006;28;20086;-70
2021/11/04 07:30:41;;;;;;;24.05;16.38;;;7.40;94.90;;;;;;5058263;28;20025;-70
2021/11/04 07:33:07;;;;;;;38.17;20.38;;;7.50;95.00;;;;;;5051162;28;20067;-70
2021/11/04 07:35:35;;;;;;;50.45;23.92;;;7.50;95.10;;;;;;5062827;28;20032;-70
2021/11/04 07:38:04;;;;;;;33.75;20.08;;;7.50;95.10;;;;;;5062374;28;20535;-69
2021/11/04 07:40:30;;;;;;;35.60;20.20;;;7.50;95.10;;;;;;5070773;28;20410;-71
2021/11/04 07:42:56;;;;;;;32.70;19.95;;;7.50;95.10;;;;;;5057305;28;20099;-71
2021/11/04 07:45:23;;;;;;;32.90;17.67;;;7.50;95.00;;;;;;5067073;28;20112;-72
2021/11/04 07:47:49;;;;;;;22.98;14.32;;;7.40;95.00;;;;;;5065154;28;20029;-69
2021/11/04 07:50:20;;;;;;;26.60;13.55;;;7.50;95.10;;;;;;5042983;28;20444;-71
2021/11/04 07:52:47;;;;;;;38.80;18.80;;;7.50;95.10;;;;;;5053170;28;20024;-71
2021/11/04 07:55:14;;;;;;;22.88;12.35;;;7.50;95.20;;;;;;5043008;28;20031;-69
2021/11/04 07:57:40;;;;;;;26.00;14.45;;;7.50;95.10;;;;;;5065554;28;20017;-71
2021/11/04 08:00:15;;;;;;;18.88;11.98;;;7.40;95.00;;;;;;5067509;28;20028;-70
2021/11/04 08:02:40;;;;;;;28.85;14.43;;;7.50;95.00;;;;;;5057360;28;20032;-70
2021/11/04 08:05:08;;;;;;;19.85;10.77;;;7.40;95.00;;;;;;5069879;28;20024;-69
2021/11/04 08:07:35;;;;;;;21.58;12.63;;;7.40;95.10;;;;;;5063205;28;20028;-69
2021/11/04 08:10:06;;;;;;;48.08;23.55;;;7.50;95.20;;;;;;5062314;28;20081;-73
2021/11/04 08:12:33;;;;;;;31.45;16.15;;;7.50;95.20;;;;;;5070139;28;20104;-71
2021/11/04 08:15:09;;;;;;;276.55;133.18;;;7.50;95.20;;;;;;5023966;28;20055;-71
2021/11/04 08:17:35;;;;;;;81.55;37.05;;;7.50;95.20;;;;;;5048410;28;20021;-71
2021/11/04 08:20:02;;;;;;;54.90;27.27;;;7.50;95.30;;;;;;5038341;28;20502;-71
2021/11/04 08:22:28;;;;;;;109.70;47.08;;;7.50;95.20;;;;;;5054256;28;20017;-70
2021/11/04 08:24:53;;;;;;;84.72;37.03;;;7.50;95.20;;;;;;5054296;28;20032;-71
2021/11/04 08:27:20;;;;;;;26.98;14.60;;;7.60;95.20;;;;;;5054495;28;20029;-72
2021/11/04 08:29:46;;;;;;;19.73;12.13;;;7.70;95.30;;;;;;5054660;28;20033;-74
2021/11/04 08:32:11;;;;;;;26.08;14.50;;;7.70;95.30;;;;;;5053850;28;20029;-70
2021/11/04 08:34:41;;;;;;;48.10;24.42;;;7.70;95.20;;;;;;5042520;28;20036;-70
2021/11/04 08:37:08;;;;;;;59.78;29.58;;;7.80;95.20;;;;;;5053939;28;20040;-72
2021/11/04 08:39:34;;;;;;;145.13;68.03;;;7.90;95.30;;;;;;5054661;28;20029;-71
2021/11/04 08:42:00;;;;;;;29.20;15.68;;;8.00;95.40;;;;;;5069004;28;20029;-70
2021/11/04 08:44:26;;;;;;;38.75;20.27;;;8.00;95.20;;;;;;5058287;28;20445;-70
2021/11/04 08:46:52;;;;;;;68.32;34.85;;;8.10;95.10;;;;;;5041337;28;20115;-71
2021/11/04 08:49:17;;;;;;;35.45;19.23;;;8.00;94.70;;;;;;5048650;28;20036;-69
2021/11/04 08:51:43;;;;;;;76.93;35.72;;;8.00;94.80;;;;;;5065814;28;20021;-70
2021/11/04 08:54:10;;;;;;;26.50;13.73;;;8.10;94.80;;;;;;5061363;28;20029;-70
2021/11/04 08:56:37;;;;;;;58.03;28.73;;;8.10;94.70;;;;;;5075341;28;20024;-69
2021/11/04 08:59:03;;;;;;;31.75;16.77;;;8.00;94.40;;;;;;5041014;28;20048;-71
2021/11/04 09:01:30;;;;;;;36.78;19.45;;;8.00;94.50;;;;;;5064617;28;20045;-71
2021/11/04 09:03:55;;;;;;;28.80;15.35;;;8.00;94.30;;;;;;5065258;28;20462;-73
2021/11/04 09:06:21;;;;;;;73.00;34.97;;;8.00;94.30;;;;;;5057429;28;20104;-71
2021/11/04 09:08:46;;;;;;;77.38;37.55;;;8.10;94.50;;;;;;5051588;28;20486;-70
2021/11/04 09:11:12;;;;;;;192.98;84.53;;;8.00;94.30;;;;;;5059714;28;20028;-71
2021/11/04 09:13:37;;;;;;;18.95;9.88;;;8.00;94.20;;;;;;5062698;28;20021;-70
2021/11/04 09:16:03;;;;;;;10.55;6.88;;;8.00;94.20;;;;;;5049512;28;20026;-71
2021/11/04 09:18:29;;;;;;;7.70;5.95;;;7.90;94.10;;;;;;5039735;28;20551;-69
2021/11/04 09:20:54;;;;;;;7.00;5.50;;;7.80;94.20;;;;;;5053538;28;20059;-70
2021/11/04 09:23:20;;;;;;;6.47;5.15;;;7.80;94.20;;;;;;5061507;28;20017;-69
2021/11/04 09:25:46;;;;;;;16.30;8.88;;;7.70;94.20;;;;;;5063295;28;20394;-71
2021/11/04 09:28:11;;;;;;;9.07;6.32;;;7.80;94.40;;;;;;5050897;28;20489;-69
2021/11/04 09:30:37;;;;;;;118.38;53.63;;;7.80;94.30;;;;;;5056396;28;20028;-69
2021/11/04 09:33:03;;;;;;;32.10;16.70;;;7.80;94.50;;;;;;5048790;28;20025;-70
2021/11/04 09:35:28;;;;;;;46.97;24.60;;;7.90;94.50;;;;;;5061564;28;20021;-70
2021/11/04 09:37:54;;;;;;;173.80;74.40;;;7.80;94.30;;;;;;5060246;28;20494;-70
2021/11/04 09:40:20;;;;;;;72.35;31.30;;;7.90;94.50;;;;;;5068203;28;20028;-69
2021/11/04 09:42:49;;;;;;;39.08;18.77;;;7.90;94.30;;;;;;5055085;28;20059;-70
2021/11/04 09:45:15;;;;;;;46.45;22.98;;;7.90;94.20;;;;;;5088579;22;20033;-70
2021/11/04 09:47:40;;;;;;;155.15;68.07;;;7.80;94.20;;;;;;5072111;28;20089;-70
2021/11/04 09:50:09;;;;;;;18.13;10.07;;;7.80;94.20;;;;;;5057354;28;20397;-69
2021/11/04 09:52:37;;;;;;;29.80;13.70;;;7.80;94.20;;;;;;5068286;28;20420;-69
2021/11/04 09:55:08;;;;;;;86.88;38.50;;;7.80;94.20;;;;;;5039036;28;20145;-68
2021/11/04 09:57:33;;;;;;;24.75;12.32;;;7.60;93.90;;;;;;5062456;28;20021;-70
2021/11/04 09:59:59;;;;;;;35.60;16.45;;;7.80;94.20;;;;;;5065445;28;20031;-71
2021/11/04 10:02:27;;;;;;;54.65;24.83;;;7.70;94.20;;;;;;5055028;28;20028;-71
2021/11/04 10:05:01;;;;;;;94.03;41.63;;;7.70;94.20;;;;;;5068846;28;20054;-71
2021/11/04 10:07:26;;;;;;;21.67;11.43;;;7.80;94.30;;;;;;5061512;28;20386;-71
2021/11/04 10:10:02;;;;;;;12.63;6.43;;;7.70;94.20;;;;;;5061259;28;20151;-70
2021/11/04 10:12:28;;;;;;;74.28;30.63;;;7.80;94.20;;;;;;5051362;28;20398;-70
2021/11/04 10:14:55;;;;;;;21.85;11.38;;;7.90;94.20;;;;;;5050960;28;20023;-69
2021/11/04 10:17:39;;;;;;;23.73;12.63;;;7.80;94.10;;;;;;5042302;28;20359;-69
2021/11/04 10:20:23;;;;;;;104.50;48.20;;;7.90;94.40;;;;;;5058569;28;20086;-70
2021/11/04 10:23:12;;;;;;;12.40;7.68;;;8.00;94.40;;;;;;5068003;28;20017;-70
2021/11/04 10:25:38;;;;;;;17.42;9.75;;;7.90;94.00;;;;;;5062101;28;20107;-69
2021/11/04 10:28:27;;;;;;;58.58;25.95;;;7.90;94.00;;;;;;5058342;28;20034;-68
2021/11/04 10:30:53;;;;;;;9.77;5.63;;;7.80;94.00;;;;;;5039615;28;20036;-69
2021/11/04 10:33:23;;;;;;;62.58;26.65;;;7.90;94.00;;;;;;5054694;28;20060;-69
2021/11/04 10:35:54;;;;;;;27.13;11.60;;;7.90;94.20;;;;;;5055076;28;20036;-70
2021/11/04 10:38:20;;;;;;;53.67;25.15;;;7.90;94.20;;;;;;5056148;28;20323;-69
2021/11/04 10:40:49;;;;;;;30.48;12.68;;;7.90;94.00;;;;;;5068194;28;20498;-68
2021/11/04 10:43:15;;;;;;;24.55;10.95;;;7.90;94.10;;;;;;5037670;28;20437;-71
2021/11/04 10:45:40;;;;;;;40.47;17.45;;;7.80;93.90;;;;;;5042928;28;20044;-70
2021/11/04 10:48:23;;;;;;;64.50;29.00;;;7.80;94.20;;;;;;5065723;28;20624;-70
2021/11/04 10:50:49;;;;;;;34.55;16.05;;;7.80;94.40;;;;;;5055010;28;20021;-71
2021/11/04 10:53:20;;;;;;;36.80;15.80;;;7.90;94.30;;;;;;5064039;28;20051;-69
2021/11/04 10:55:47;;;;;;;;;;;7.90;94.10;;;;;;5063132;28;20123;-70
2021/11/04 10:58:33;;;;;;;51.60;23.30;;;7.80;94.20;;;;;;5056255;28;19905;-70
2021/11/04 11:01:00;;;;;;;18.27;8.43;;;7.90;94.20;;;;;;5041113;28;20024;-69
2021/11/04 11:03:30;;;;;;;83.25;35.47;;;7.80;94.10;;;;;;5061754;28;20084;-68
2021/11/04 11:05:59;;;;;;;28.50;12.73;;;7.80;94.20;;;;;;5045826;28;20049;-68
2021/11/04 11:08:28;;;;;;;56.65;24.73;;;7.80;94.20;;;;;;5054428;28;20017;-69
2021/11/04 11:10:54;;;;;;;38.72;14.88;;;7.80;94.20;;;;;;5067134;28;20021;-69
2021/11/04 11:13:20;;;;;;;167.38;87.22;;;7.80;94.10;;;;;;5058516;28;20460;-71
2021/11/04 11:15:53;;;;;;;135.73;60.63;;;7.80;94.20;;;;;;5059838;28;20021;-68
2021/11/04 11:18:20;;;;;;;46.90;21.08;;;7.80;94.00;;;;;;5048800;28;20021;-69
2021/11/04 11:20:48;;;;;;;27.95;12.32;;;7.80;94.20;;;;;;5054604;28;20056;-70
2021/11/04 11:23:19;;;;;;;127.82;59.67;;;7.90;94.10;;;;;;5063859;28;20533;-69
2021/11/04 11:25:55;;;;;;;;;;;7.80;93.80;;;;;;5062714;28;20520;-69
2021/11/04 11:28:22;;;;;;;44.40;18.75;;;7.80;93.90;;;;;;5054904;28;20006;-69
2021/11/04 11:31:09;;;;;;;73.50;32.13;;;7.80;94.00;;;;;;5067533;28;20406;-69
2021/11/04 11:33:42;;;;;;;148.77;64.47;;;7.90;93.90;;;;;;5059742;28;20016;-69
2021/11/04 11:36:28;;;;;;;58.67;25.95;;;7.80;93.50;;;;;;5056284;28;20018;-69
2021/11/04 11:38:57;;;;;;;154.07;67.28;;;7.90;93.40;;;;;;5020441;28;20059;-70
2021/11/04 11:41:31;;;;;;;29.80;13.35;;;7.80;93.20;;;;;;5062532;28;20009;-68
2021/11/04 11:43:58;;;;;;;115.05;49.38;;;7.90;93.50;;;;;;5061145;28;20033;-69
2021/11/04 11:46:23;;;;;;;49.50;22.00;;;7.80;93.40;;;;;;5054062;28;20033;-69
2021/11/04 11:49:12;;;;;;;55.70;24.73;;;7.80;93.50;;;;;;5067172;28;20086;-69
2021/11/04 11:51:43;;;;;;;42.30;18.63;;;7.80;93.10;;;;;;5045213;28;20062;-70
2021/11/04 11:54:09;;;;;;;14.00;7.18;;;7.70;92.90;;;;;;5055555;28;20029;-69
2021/11/04 11:56:35;;;;;;;43.83;19.00;;;7.60;92.50;;;;;;5066789;28;20116;-70
2021/11/04 11:59:17;;;;;;;86.10;36.25;;;7.60;92.60;;;;;;5055338;28;20096;-68
2021/11/04 12:01:45;;;;;;;71.47;31.45;;;7.50;93.20;;;;;;5059591;28;20025;-70
2021/11/04 12:04:26;;;;;;;40.92;18.33;;;7.60;93.30;;;;;;5064287;28;20032;-70
2021/11/04 12:06:54;;;;;;;59.97;25.00;;;7.50;92.80;;;;;;5020180;28;20508;-70
2021/11/04 12:09:41;;;;;;;52.20;23.55;;;7.60;93.30;;;;;;5062817;28;20029;-69
2021/11/04 12:12:08;;;;;;;57.65;24.90;;;7.60;93.20;;;;;;5063800;28;20052;-69
2021/11/04 12:14:38;;;;;;;115.05;50.30;;;7.50;92.80;;;;;;5055860;28;20025;-68
2021/11/04 12:17:05;;;;;;;66.95;29.10;;;7.60;93.40;;;;;;5068678;28;20055;-69
2021/11/04 12:19:41;;;;;;;54.53;23.27;;;7.50;92.80;;;;;;5063122;28;20024;-70
2021/11/04 12:22:23;;;;;;;28.92;13.25;;;7.50;93.20;;;;;;5059313;28;20479;-69
2021/11/04 12:24:51;;;;;;;76.72;33.10;;;7.50;92.60;;;;;;5070701;28;20040;-69
2021/11/04 12:27:17;;;;;;;70.75;30.77;;;7.50;93.00;;;;;;5043130;28;20107;-69
2021/11/04 12:29:44;;;;;;;47.90;20.67;;;7.50;93.00;;;;;;5063070;28;20102;-69
2021/11/04 12:32:15;;;;;;;40.13;17.80;;;7.40;92.90;;;;;;5067439;28;20124;-70
2021/11/04 12:34:42;;;;;;;44.30;19.33;;;7.30;92.50;;;;;;5038979;28;20498;-70
2021/11/04 12:37:13;;;;;;;31.90;13.75;;;7.30;92.40;;;;;;5067691;28;20059;-70
2021/11/04 12:39:44;;;;;;;77.30;32.45;;;7.20;92.40;;;;;;5063642;28;20086;-70
2021/11/04 12:42:13;;;;;;;65.82;27.45;;;7.20;92.90;;;;;;5058367;28;20381;-68